sensor_id;sensor_type;location;lat;lon;timestamp;pressure;altitude;pressure_sealevel;temperature;humidity
55191;BME280;41070;50.360;18.742;2023-02-03T00:00:58;99277.25;;;-0.52;81.52
55191;BME280;41070;50.360;18.742;2023-02-03T00:03:31;99274.45;;;-0.53;81.30
55191;BME280;41070;50.360;18.742;2023-02-03T00:06:00;99275.92;;;-0.56;81.44
55191;BME280;41070;50.360;18.742;2023-02-03T00:08:28;99280.64;;;-0.57;81.12
55191;BME280;41070;50.360;18.742;2023-02-03T00:10:57;99285.83;;;-0.58;81.11
55191;BME280;41070;50.360;18.742;2023-02-03T00:13:26;99284.92;;;-0.62;80.92
55191;BME280;41070;50.360;18.742;2023-02-03T00:15:54;99283.02;;;-0.62;80.91
55191;BME280;41070;50.360;18.742;2023-02-03T00:18:22;99285.34;;;-0.61;80.86
55191;BME280;41070;50.360;18.742;2023-02-03T00:20:49;99290.76;;;-0.62;81.19
55191;BME280;41070;50.360;18.742;2023-02-03T00:23:17;99290.33;;;-0.62;80.55
55191;BME280;41070;50.360;18.742;2023-02-03T00:25:46;99297.05;;;-0.64;80.38
55191;BME280;41070;50.360;18.742;2023-02-03T00:28:14;99298.81;;;-0.66;80.68
55191;BME280;41070;50.360;18.742;2023-02-03T00:30:42;99299.79;;;-0.68;80.53
55191;BME280;41070;50.360;18.742;2023-02-03T00:33:09;99307.56;;;-0.68;80.70
55191;BME280;41070;50.360;18.742;2023-02-03T00:35:38;99308.45;;;-0.69;80.50
55191;BME280;41070;50.360;18.742;2023-02-03T00:38:06;99310.05;;;-0.68;80.61
55191;BME280;41070;50.360;18.742;2023-02-03T00:40:34;99310.25;;;-0.69;81.01
55191;BME280;41070;50.360;18.742;2023-02-03T00:43:02;99306.31;;;-0.68;80.95
55191;BME280;41070;50.360;18.742;2023-02-03T00:45:30;99304.52;;;-0.67;80.94
55191;BME280;41070;50.360;18.742;2023-02-03T00:47:59;99304.45;;;-0.64;80.97
55191;BME280;41070;50.360;18.742;2023-02-03T00:50:27;99302.36;;;-0.62;81.09
55191;BME280;41070;50.360;18.742;2023-02-03T00:52:54;99306.42;;;-0.61;81.14
55191;BME280;41070;50.360;18.742;2023-02-03T00:55:22;99310.10;;;-0.62;80.82
55191;BME280;41070;50.360;18.742;2023-02-03T00:57:50;99307.86;;;-0.66;80.98
55191;BME280;41070;50.360;18.742;2023-02-03T01:00:19;99307.51;;;-0.69;81.09
55191;BME280;41070;50.360;18.742;2023-02-03T01:02:54;99306.43;;;-0.71;81.25
55191;BME280;41070;50.360;18.742;2023-02-03T01:05:23;99307.30;;;-0.75;80.87
55191;BME280;41070;50.360;18.742;2023-02-03T01:07:56;99302.64;;;-0.79;80.96
55191;BME280;41070;50.360;18.742;2023-02-03T01:10:28;99299.30;;;-0.81;80.77
55191;BME280;41070;50.360;18.742;2023-02-03T01:13:09;99295.82;;;-0.84;80.62
55191;BME280;41070;50.360;18.742;2023-02-03T01:15:44;99300.61;;;-0.88;80.90
55191;BME280;41070;50.360;18.742;2023-02-03T01:18:23;99296.30;;;-0.88;80.93
55191;BME280;41070;50.360;18.742;2023-02-03T01:20:56;99289.25;;;-0.90;80.82
55191;BME280;41070;50.360;18.742;2023-02-03T01:23:24;99287.72;;;-0.91;81.05
55191;BME280;41070;50.360;18.742;2023-02-03T01:25:52;99293.09;;;-0.91;80.96
55191;BME280;41070;50.360;18.742;2023-02-03T01:28:20;99296.72;;;-0.89;80.83
55191;BME280;41070;50.360;18.742;2023-02-03T01:30:48;99293.63;;;-0.89;81.17
55191;BME280;41070;50.360;18.742;2023-02-03T01:33:21;99288.83;;;-0.91;81.03
55191;BME280;41070;50.360;18.742;2023-02-03T01:35:59;99289.52;;;-0.94;80.82
55191;BME280;41070;50.360;18.742;2023-02-03T01:38:28;99290.58;;;-1.01;80.74
55191;BME280;41070;50.360;18.742;2023-02-03T01:40:55;99284.97;;;-1.05;81.07
55191;BME280;41070;50.360;18.742;2023-02-03T01:43:36;99283.99;;;-1.08;81.19
55191;BME280;41070;50.360;18.742;2023-02-03T01:49:27;99281.35;;;-1.20;81.08
55191;BME280;41070;50.360;18.742;2023-02-03T01:52:02;99280.95;;;-1.28;81.33
55191;BME280;41070;50.360;18.742;2023-02-03T01:54:55;99281.73;;;-1.34;81.53
55191;BME280;41070;50.360;18.742;2023-02-03T01:57:33;99282.06;;;-1.38;82.04
55191;BME280;41070;50.360;18.742;2023-02-03T02:00:08;99280.94;;;-1.35;82.09
55191;BME280;41070;50.360;18.742;2023-02-03T02:02:41;99275.74;;;-1.34;82.18
55191;BME280;41070;50.360;18.742;2023-02-03T02:05:27;99275.21;;;-1.34;82.28
55191;BME280;41070;50.360;18.742;2023-02-03T02:08:03;99267.59;;;-1.36;82.03
55191;BME280;41070;50.360;18.742;2023-02-03T02:10:36;99265.24;;;-1.39;81.98
55191;BME280;41070;50.360;18.742;2023-02-03T02:13:07;99264.26;;;-1.39;82.11
55191;BME280;41070;50.360;18.742;2023-02-03T02:21:26;99251.06;;;-1.45;82.03
55191;BME280;41070;50.360;18.742;2023-02-03T02:33:22;99244.48;;;-1.41;82.48
55191;BME280;41070;50.360;18.742;2023-02-03T02:36:06;99232.34;;;-1.42;82.35
55191;BME280;41070;50.360;18.742;2023-02-03T02:41:19;99215.61;;;-1.45;82.20
55191;BME280;41070;50.360;18.742;2023-02-03T02:46:49;99204.86;;;-1.44;82.97
55191;BME280;41070;50.360;18.742;2023-02-03T02:49:24;99201.03;;;-1.39;83.37
55191;BME280;41070;50.360;18.742;2023-02-03T02:51:56;99200.88;;;-1.32;83.44
55191;BME280;41070;50.360;18.742;2023-02-03T02:54:25;99201.25;;;-1.25;83.41
55191;BME280;41070;50.360;18.742;2023-02-03T02:56:56;99197.63;;;-1.20;83.50
55191;BME280;41070;50.360;18.742;2023-02-03T02:59:25;99200.44;;;-1.17;83.60
55191;BME280;41070;50.360;18.742;2023-02-03T03:01:53;99206.73;;;-1.12;83.71
55191;BME280;41070;50.360;18.742;2023-02-03T03:04:30;99211.27;;;-1.08;83.57
55191;BME280;41070;50.360;18.742;2023-02-03T03:07:11;99219.51;;;-1.05;83.47
55191;BME280;41070;50.360;18.742;2023-02-03T03:09:43;99228.85;;;-1.01;83.39
55191;BME280;41070;50.360;18.742;2023-02-03T03:12:19;99227.34;;;-0.98;83.46
55191;BME280;41070;50.360;18.742;2023-02-03T03:14:52;99228.05;;;-0.94;83.37
55191;BME280;41070;50.360;18.742;2023-02-03T03:17:33;99224.13;;;-0.91;83.53
55191;BME280;41070;50.360;18.742;2023-02-03T03:20:06;99223.31;;;-0.88;83.51
55191;BME280;41070;50.360;18.742;2023-02-03T03:22:40;99226.79;;;-0.86;83.40
55191;BME280;41070;50.360;18.742;2023-02-03T03:25:14;99215.25;;;-0.85;83.51
55191;BME280;41070;50.360;18.742;2023-02-03T03:27:52;99208.10;;;-0.85;83.48
55191;BME280;41070;50.360;18.742;2023-02-03T03:30:32;99212.35;;;-0.86;83.46
55191;BME280;41070;50.360;18.742;2023-02-03T03:33:03;99207.83;;;-0.87;83.28
55191;BME280;41070;50.360;18.742;2023-02-03T03:38:35;99187.48;;;-0.88;83.38
55191;BME280;41070;50.360;18.742;2023-02-03T03:41:19;99180.69;;;-0.90;83.39
55191;BME280;41070;50.360;18.742;2023-02-03T03:43:54;99171.38;;;-0.91;83.26
55191;BME280;41070;50.360;18.742;2023-02-03T03:46:28;99168.46;;;-0.94;83.33
55191;BME280;41070;50.360;18.742;2023-02-03T03:49:01;99162.55;;;-0.97;83.61
55191;BME280;41070;50.360;18.742;2023-02-03T03:54:03;99161.12;;;-1.00;83.70
55191;BME280;41070;50.360;18.742;2023-02-03T03:56:37;99159.55;;;-1.00;83.61
55191;BME280;41070;50.360;18.742;2023-02-03T03:59:07;99156.54;;;-1.01;83.62
55191;BME280;41070;50.360;18.742;2023-02-03T04:01:36;99160.10;;;-1.02;83.89
55191;BME280;41070;50.360;18.742;2023-02-03T04:04:09;99160.70;;;-1.00;84.12
55191;BME280;41070;50.360;18.742;2023-02-03T04:06:38;99154.11;;;-1.01;84.05
55191;BME280;41070;50.360;18.742;2023-02-03T04:09:06;99154.69;;;-1.02;83.96
55191;BME280;41070;50.360;18.742;2023-02-03T04:11:34;99150.88;;;-1.01;83.85
55191;BME280;41070;50.360;18.742;2023-02-03T04:14:19;99142.93;;;-1.01;83.85
55191;BME280;41070;50.360;18.742;2023-02-03T04:16:47;99141.82;;;-1.02;83.93
55191;BME280;41070;50.360;18.742;2023-02-03T04:19:15;99143.04;;;-1.00;83.99
55191;BME280;41070;50.360;18.742;2023-02-03T04:21:43;99138.83;;;-1.02;83.76
55191;BME280;41070;50.360;18.742;2023-02-03T04:24:12;99133.19;;;-1.04;83.95
55191;BME280;41070;50.360;18.742;2023-02-03T04:26:40;99132.80;;;-1.06;84.15
55191;BME280;41070;50.360;18.742;2023-02-03T04:29:08;99133.99;;;-1.09;84.12
55191;BME280;41070;50.360;18.742;2023-02-03T04:31:36;99131.41;;;-1.10;84.04
55191;BME280;41070;50.360;18.742;2023-02-03T04:34:05;99127.19;;;-1.13;83.95
55191;BME280;41070;50.360;18.742;2023-02-03T04:36:32;99126.86;;;-1.13;84.20
55191;BME280;41070;50.360;18.742;2023-02-03T04:39:00;99122.55;;;-1.14;83.91
55191;BME280;41070;50.360;18.742;2023-02-03T04:41:28;99116.56;;;-1.15;83.93
55191;BME280;41070;50.360;18.742;2023-02-03T04:43:55;99117.24;;;-1.15;83.76
55191;BME280;41070;50.360;18.742;2023-02-03T04:46:23;99115.41;;;-1.13;84.04
55191;BME280;41070;50.360;18.742;2023-02-03T04:48:50;99107.54;;;-1.13;84.21
55191;BME280;41070;50.360;18.742;2023-02-03T04:51:18;99107.64;;;-1.13;84.15
55191;BME280;41070;50.360;18.742;2023-02-03T04:53:46;99098.55;;;-1.14;83.91
55191;BME280;41070;50.360;18.742;2023-02-03T04:56:14;99099.52;;;-1.11;84.59
55191;BME280;41070;50.360;18.742;2023-02-03T04:58:42;99090.98;;;-1.09;84.26
55191;BME280;41070;50.360;18.742;2023-02-03T05:01:09;99088.61;;;-1.09;84.43
55191;BME280;41070;50.360;18.742;2023-02-03T05:03:37;99086.71;;;-1.09;84.49
55191;BME280;41070;50.360;18.742;2023-02-03T05:06:05;99079.36;;;-1.09;84.63
55191;BME280;41070;50.360;18.742;2023-02-03T05:08:33;99074.27;;;-1.10;84.60
55191;BME280;41070;50.360;18.742;2023-02-03T05:11:01;99063.92;;;-1.09;84.66
55191;BME280;41070;50.360;18.742;2023-02-03T05:13:28;99053.73;;;-1.07;84.74
55191;BME280;41070;50.360;18.742;2023-02-03T05:15:56;99045.45;;;-1.06;84.80
55191;BME280;41070;50.360;18.742;2023-02-03T05:18:23;99047.69;;;-1.08;84.72
55191;BME280;41070;50.360;18.742;2023-02-03T05:20:52;99046.05;;;-1.08;84.79
55191;BME280;41070;50.360;18.742;2023-02-03T05:23:19;99042.64;;;-1.09;84.83
55191;BME280;41070;50.360;18.742;2023-02-03T05:25:47;99035.19;;;-1.09;85.01
55191;BME280;41070;50.360;18.742;2023-02-03T05:28:15;99030.32;;;-1.06;85.25
55191;BME280;41070;50.360;18.742;2023-02-03T05:30:43;99023.66;;;-1.04;85.03
55191;BME280;41070;50.360;18.742;2023-02-03T05:33:10;99022.60;;;-1.04;85.02
55191;BME280;41070;50.360;18.742;2023-02-03T05:35:38;99017.98;;;-1.03;84.93
55191;BME280;41070;50.360;18.742;2023-02-03T05:38:06;99013.61;;;-1.05;84.97
55191;BME280;41070;50.360;18.742;2023-02-03T05:40:34;99009.88;;;-1.05;85.06
55191;BME280;41070;50.360;18.742;2023-02-03T05:43:20;99003.33;;;-1.04;85.24
55191;BME280;41070;50.360;18.742;2023-02-03T05:45:48;99001.70;;;-1.04;85.12
55191;BME280;41070;50.360;18.742;2023-02-03T05:48:16;98999.10;;;-1.07;84.67
55191;BME280;41070;50.360;18.742;2023-02-03T05:50:43;98998.79;;;-1.07;85.06
55191;BME280;41070;50.360;18.742;2023-02-03T05:53:11;98995.85;;;-1.08;85.00
55191;BME280;41070;50.360;18.742;2023-02-03T05:55:38;98992.02;;;-1.09;84.67
55191;BME280;41070;50.360;18.742;2023-02-03T05:58:06;98991.38;;;-1.10;84.76
55191;BME280;41070;50.360;18.742;2023-02-03T06:00:34;98991.64;;;-1.10;84.74
55191;BME280;41070;50.360;18.742;2023-02-03T06:03:02;98986.67;;;-1.12;84.49
55191;BME280;41070;50.360;18.742;2023-02-03T06:05:32;98987.25;;;-1.12;84.50
55191;BME280;41070;50.360;18.742;2023-02-03T06:08:07;98984.19;;;-1.14;84.48
55191;BME280;41070;50.360;18.742;2023-02-03T06:10:35;98985.31;;;-1.12;84.36
55191;BME280;41070;50.360;18.742;2023-02-03T06:13:11;98977.92;;;-1.11;84.49
55191;BME280;41070;50.360;18.742;2023-02-03T06:15:40;98969.86;;;-1.13;84.26
55191;BME280;41070;50.360;18.742;2023-02-03T06:18:08;98969.35;;;-1.12;84.44
55191;BME280;41070;50.360;18.742;2023-02-03T06:20:35;98971.55;;;-1.12;84.18
55191;BME280;41070;50.360;18.742;2023-02-03T06:23:03;98969.92;;;-1.12;84.11
55191;BME280;41070;50.360;18.742;2023-02-03T06:25:36;98965.72;;;-1.12;84.55
55191;BME280;41070;50.360;18.742;2023-02-03T06:28:13;98960.29;;;-1.09;84.57
55191;BME280;41070;50.360;18.742;2023-02-03T06:30:42;98955.09;;;-1.08;84.19
55191;BME280;41070;50.360;18.742;2023-02-03T06:33:10;98953.48;;;-1.05;84.22
55191;BME280;41070;50.360;18.742;2023-02-03T06:35:45;98946.02;;;-1.01;83.94
55191;BME280;41070;50.360;18.742;2023-02-03T06:38:13;98945.13;;;-1.01;84.11
55191;BME280;41070;50.360;18.742;2023-02-03T06:40:44;98937.67;;;-1.01;83.90
55191;BME280;41070;50.360;18.742;2023-02-03T06:43:13;98936.88;;;-1.01;83.85
55191;BME280;41070;50.360;18.742;2023-02-03T06:45:50;98936.09;;;-0.99;83.76
55191;BME280;41070;50.360;18.742;2023-02-03T06:48:53;98927.73;;;-1.00;83.21
55191;BME280;41070;50.360;18.742;2023-02-03T06:51:21;98923.63;;;-1.02;83.44
55191;BME280;41070;50.360;18.742;2023-02-03T06:53:50;98922.42;;;-1.02;83.36
55191;BME280;41070;50.360;18.742;2023-02-03T06:56:18;98917.50;;;-0.99;83.36
55191;BME280;41070;50.360;18.742;2023-02-03T06:58:45;98915.03;;;-0.98;83.22
55191;BME280;41070;50.360;18.742;2023-02-03T07:01:13;98905.27;;;-0.94;83.48
55191;BME280;41070;50.360;18.742;2023-02-03T07:03:41;98899.40;;;-0.91;83.02
55191;BME280;41070;50.360;18.742;2023-02-03T07:06:08;98895.29;;;-0.91;82.57
55191;BME280;41070;50.360;18.742;2023-02-03T07:08:37;98891.09;;;-0.90;82.56
55191;BME280;41070;50.360;18.742;2023-02-03T07:11:07;98891.42;;;-0.86;82.96
55191;BME280;41070;50.360;18.742;2023-02-03T07:13:53;98885.86;;;-0.84;82.52
55191;BME280;41070;50.360;18.742;2023-02-03T07:16:21;98876.61;;;-0.83;82.14
55191;BME280;41070;50.360;18.742;2023-02-03T07:18:50;98872.40;;;-0.82;82.11
55191;BME280;41070;50.360;18.742;2023-02-03T07:21:18;98868.20;;;-0.80;82.27
55191;BME280;41070;50.360;18.742;2023-02-03T07:23:47;98871.84;;;-0.76;82.35
55191;BME280;41070;50.360;18.742;2023-02-03T07:26:16;98871.23;;;-0.73;82.45
55191;BME280;41070;50.360;18.742;2023-02-03T07:28:44;98867.69;;;-0.71;82.03
55191;BME280;41070;50.360;18.742;2023-02-03T07:31:13;98869.44;;;-0.68;82.12
55191;BME280;41070;50.360;18.742;2023-02-03T07:33:42;98869.66;;;-0.63;82.12
55191;BME280;41070;50.360;18.742;2023-02-03T07:36:13;98863.23;;;-0.60;81.85
55191;BME280;41070;50.360;18.742;2023-02-03T07:38:40;98855.18;;;-0.59;81.35
55191;BME280;41070;50.360;18.742;2023-02-03T07:41:11;98854.05;;;-0.56;81.73
55191;BME280;41070;50.360;18.742;2023-02-03T07:43:41;98846.73;;;-0.53;81.78
55191;BME280;41070;50.360;18.742;2023-02-03T07:46:08;98845.83;;;-0.51;81.50
55191;BME280;41070;50.360;18.742;2023-02-03T07:48:38;98833.95;;;-0.50;81.11
55191;BME280;41070;50.360;18.742;2023-02-03T07:51:06;98835.02;;;-0.47;81.15
55191;BME280;41070;50.360;18.742;2023-02-03T07:53:42;98832.16;;;-0.42;81.36
55191;BME280;41070;50.360;18.742;2023-02-03T07:56:12;98821.96;;;-0.41;80.59
55191;BME280;41070;50.360;18.742;2023-02-03T07:58:40;98821.76;;;-0.39;80.98
55191;BME280;41070;50.360;18.742;2023-02-03T08:01:13;98821.91;;;-0.35;81.31
55191;BME280;41070;50.360;18.742;2023-02-03T08:03:44;98818.48;;;-0.32;81.56
55191;BME280;41070;50.360;18.742;2023-02-03T08:06:12;98818.91;;;-0.30;81.29
55191;BME280;41070;50.360;18.742;2023-02-03T08:08:41;98813.55;;;-0.29;81.42
55191;BME280;41070;50.360;18.742;2023-02-03T08:11:13;98809.81;;;-0.26;80.94
55191;BME280;41070;50.360;18.742;2023-02-03T08:13:41;98807.22;;;-0.25;81.24
55191;BME280;41070;50.360;18.742;2023-02-03T08:16:09;98800.60;;;-0.22;81.19
55191;BME280;41070;50.360;18.742;2023-02-03T08:18:36;98795.33;;;-0.19;81.34
55191;BME280;41070;50.360;18.742;2023-02-03T08:21:10;98796.63;;;-0.14;81.08
55191;BME280;41070;50.360;18.742;2023-02-03T08:23:38;98795.84;;;-0.09;81.12
55191;BME280;41070;50.360;18.742;2023-02-03T08:26:06;98789.55;;;-0.05;81.15
55191;BME280;41070;50.360;18.742;2023-02-03T08:28:42;98786.88;;;-0.04;81.21
55191;BME280;41070;50.360;18.742;2023-02-03T08:31:15;98777.20;;;-0.07;81.32
55191;BME280;41070;50.360;18.742;2023-02-03T08:33:45;98777.67;;;-0.09;81.79
55191;BME280;41070;50.360;18.742;2023-02-03T08:36:16;98774.05;;;-0.09;81.84
55191;BME280;41070;50.360;18.742;2023-02-03T08:38:48;98765.06;;;-0.12;82.22
55191;BME280;41070;50.360;18.742;2023-02-03T08:41:33;98756.59;;;-0.13;82.72
55191;BME280;41070;50.360;18.742;2023-02-03T08:44:05;98749.17;;;-0.15;82.81
55191;BME280;41070;50.360;18.742;2023-02-03T08:46:34;98745.08;;;-0.15;83.10
55191;BME280;41070;50.360;18.742;2023-02-03T08:49:01;98736.77;;;-0.16;83.07
55191;BME280;41070;50.360;18.742;2023-02-03T08:51:29;98734.97;;;-0.13;83.89
55191;BME280;41070;50.360;18.742;2023-02-03T08:53:57;98731.66;;;-0.12;83.83
55191;BME280;41070;50.360;18.742;2023-02-03T08:56:25;98729.38;;;-0.10;84.26
55191;BME280;41070;50.360;18.742;2023-02-03T08:58:54;98720.33;;;-0.07;84.54
55191;BME280;41070;50.360;18.742;2023-02-03T09:01:24;98721.54;;;-0.07;84.92
55191;BME280;41070;50.360;18.742;2023-02-03T09:03:53;98721.01;;;-0.06;85.01
55191;BME280;41070;50.360;18.742;2023-02-03T09:06:23;98709.77;;;-0.07;85.41
55191;BME280;41070;50.360;18.742;2023-02-03T09:08:52;98704.40;;;-0.09;85.80
55191;BME280;41070;50.360;18.742;2023-02-03T09:11:23;98692.09;;;-0.14;86.07
55191;BME280;41070;50.360;18.742;2023-02-03T09:13:51;98690.64;;;-0.17;86.17
55191;BME280;41070;50.360;18.742;2023-02-03T09:16:29;98684.17;;;-0.19;86.77
55191;BME280;41070;50.360;18.742;2023-02-03T09:18:57;98679.12;;;-0.20;86.83
55191;BME280;41070;50.360;18.742;2023-02-03T09:21:25;98668.17;;;-0.19;86.83
55191;BME280;41070;50.360;18.742;2023-02-03T09:23:55;98656.35;;;-0.19;87.18
55191;BME280;41070;50.360;18.742;2023-02-03T09:26:23;98644.62;;;-0.21;87.41
55191;BME280;41070;50.360;18.742;2023-02-03T09:28:51;98638.63;;;-0.21;87.42
55191;BME280;41070;50.360;18.742;2023-02-03T09:31:19;98632.22;;;-0.22;87.18
55191;BME280;41070;50.360;18.742;2023-02-03T09:33:51;98624.46;;;-0.18;87.57
55191;BME280;41070;50.360;18.742;2023-02-03T09:36:18;98620.11;;;-0.17;87.37
55191;BME280;41070;50.360;18.742;2023-02-03T09:38:46;98615.30;;;-0.14;87.63
55191;BME280;41070;50.360;18.742;2023-02-03T09:47:08;98580.34;;;-0.10;88.22
55191;BME280;41070;50.360;18.742;2023-02-03T09:49:58;98573.56;;;-0.11;87.94
55191;BME280;41070;50.360;18.742;2023-02-03T09:52:32;98562.83;;;-0.11;88.27
55191;BME280;41070;50.360;18.742;2023-02-03T09:55:35;98550.20;;;-0.11;88.56
55191;BME280;41070;50.360;18.742;2023-02-03T09:58:18;98533.57;;;-0.09;88.44
55191;BME280;41070;50.360;18.742;2023-02-03T10:00:56;98520.57;;;-0.08;89.02
55191;BME280;41070;50.360;18.742;2023-02-03T10:03:31;98513.63;;;-0.08;88.90
55191;BME280;41070;50.360;18.742;2023-02-03T10:06:47;98506.34;;;-0.07;89.30
55191;BME280;41070;50.360;18.742;2023-02-03T10:09:36;98498.23;;;-0.04;89.39
55191;BME280;41070;50.360;18.742;2023-02-03T10:12:57;98489.99;;;-0.01;89.56
55191;BME280;41070;50.360;18.742;2023-02-03T11:53:17;98168.02;;;0.52;93.06
55191;BME280;41070;50.360;18.742;2023-02-03T12:57:23;98004.61;;;0.44;93.00
55191;BME280;41070;50.360;18.742;2023-02-03T13:05:13;97971.23;;;0.32;93.06
55191;BME280;41070;50.360;18.742;2023-02-03T18:01:31;97897.41;;;1.52;100.00
55191;BME280;41070;50.360;18.742;2023-02-03T18:07:58;97905.55;;;1.51;100.00
55191;BME280;41070;50.360;18.742;2023-02-03T18:10:35;97910.57;;;1.50;100.00
55191;BME280;41070;50.360;18.742;2023-02-03T18:13:11;97916.27;;;1.50;100.00
55191;BME280;41070;50.360;18.742;2023-02-03T18:20:34;97926.51;;;1.48;100.00
55191;BME280;41070;50.360;18.742;2023-02-03T18:23:21;97933.44;;;1.48;100.00
55191;BME280;41070;50.360;18.742;2023-02-03T18:26:08;97935.30;;;1.48;100.00
55191;BME280;41070;50.360;18.742;2023-02-03T18:28:37;97931.30;;;1.46;100.00
55191;BME280;41070;50.360;18.742;2023-02-03T18:31:26;97941.73;;;1.44;100.00
55191;BME280;41070;50.360;18.742;2023-02-03T18:34:01;97938.34;;;1.40;100.00
55191;BME280;41070;50.360;18.742;2023-02-03T18:36:58;97946.20;;;1.42;100.00
55191;BME280;41070;50.360;18.742;2023-02-03T18:40:35;97951.55;;;1.39;100.00
55191;BME280;41070;50.360;18.742;2023-02-03T18:43:40;97951.02;;;1.36;100.00
55191;BME280;41070;50.360;18.742;2023-02-03T18:50:11;97975.77;;;1.40;100.00
55191;BME280;41070;50.360;18.742;2023-02-03T18:53:00;97969.77;;;1.40;100.00
55191;BME280;41070;50.360;18.742;2023-02-03T18:55:30;97969.37;;;1.31;100.00
55191;BME280;41070;50.360;18.742;2023-02-03T18:58:24;97969.33;;;1.23;100.00
55191;BME280;41070;50.360;18.742;2023-02-03T19:01:41;97972.07;;;1.15;100.00
55191;BME280;41070;50.360;18.742;2023-02-03T19:11:54;97969.95;;;0.99;100.00
55191;BME280;41070;50.360;18.742;2023-02-03T19:14:24;97969.67;;;0.97;100.00
55191;BME280;41070;50.360;18.742;2023-02-03T19:16:52;97963.14;;;0.95;100.00
55191;BME280;41070;50.360;18.742;2023-02-03T19:19:31;97965.13;;;0.93;100.00
55191;BME280;41070;50.360;18.742;2023-02-03T19:22:03;97965.89;;;0.94;100.00
55191;BME280;41070;50.360;18.742;2023-02-03T19:24:33;97963.00;;;0.93;100.00
55191;BME280;41070;50.360;18.742;2023-02-03T19:27:00;97957.63;;;0.93;100.00
55191;BME280;41070;50.360;18.742;2023-02-03T19:30:30;97960.84;;;0.96;100.00
55191;BME280;41070;50.360;18.742;2023-02-03T19:32:58;97960.52;;;0.94;100.00
55191;BME280;41070;50.360;18.742;2023-02-03T19:41:38;97961.52;;;0.96;100.00
55191;BME280;41070;50.360;18.742;2023-02-03T19:44:29;97962.81;;;0.95;100.00
55191;BME280;41070;50.360;18.742;2023-02-03T19:46:57;97962.88;;;0.95;100.00
55191;BME280;41070;50.360;18.742;2023-02-03T19:49:28;97961.52;;;0.92;100.00
55191;BME280;41070;50.360;18.742;2023-02-03T19:51:56;97964.81;;;0.96;100.00
55191;BME280;41070;50.360;18.742;2023-02-03T19:54:33;97967.71;;;0.98;100.00
55191;BME280;41070;50.360;18.742;2023-02-03T19:57:17;97970.16;;;0.99;100.00
55191;BME280;41070;50.360;18.742;2023-02-03T19:59:52;97969.52;;;1.02;100.00
55191;BME280;41070;50.360;18.742;2023-02-03T20:02:22;97972.59;;;1.02;100.00
55191;BME280;41070;50.360;18.742;2023-02-03T20:04:51;97973.52;;;1.06;100.00
55191;BME280;41070;50.360;18.742;2023-02-03T20:10:40;97971.13;;;1.09;100.00
55191;BME280;41070;50.360;18.742;2023-02-03T20:13:11;97970.11;;;1.10;100.00
55191;BME280;41070;50.360;18.742;2023-02-03T20:15:48;97970.85;;;1.12;100.00
55191;BME280;41070;50.360;18.742;2023-02-03T20:18:19;97966.29;;;1.14;100.00
55191;BME280;41070;50.360;18.742;2023-02-03T20:20:57;97966.72;;;1.16;100.00
55191;BME280;41070;50.360;18.742;2023-02-03T20:23:25;97965.21;;;1.17;100.00
55191;BME280;41070;50.360;18.742;2023-02-03T20:25:53;97962.39;;;1.18;100.00
55191;BME280;41070;50.360;18.742;2023-02-03T20:28:24;97960.70;;;1.16;100.00
55191;BME280;41070;50.360;18.742;2023-02-03T20:31:00;97957.53;;;1.19;100.00
55191;BME280;41070;50.360;18.742;2023-02-03T20:33:33;97953.91;;;1.21;100.00
55191;BME280;41070;50.360;18.742;2023-02-03T20:36:01;97951.77;;;1.21;100.00
55191;BME280;41070;50.360;18.742;2023-02-03T20:38:32;97950.59;;;1.22;100.00
55191;BME280;41070;50.360;18.742;2023-02-03T20:41:09;97953.14;;;1.23;100.00
55191;BME280;41070;50.360;18.742;2023-02-03T20:43:38;97947.08;;;1.24;100.00
55191;BME280;41070;50.360;18.742;2023-02-03T20:46:19;97952.22;;;1.24;100.00
55191;BME280;41070;50.360;18.742;2023-02-03T20:48:47;97949.99;;;1.25;100.00
55191;BME280;41070;50.360;18.742;2023-02-03T20:51:17;97943.37;;;1.26;100.00
55191;BME280;41070;50.360;18.742;2023-02-03T20:53:46;97942.25;;;1.26;100.00
55191;BME280;41070;50.360;18.742;2023-02-03T20:56:17;97939.85;;;1.28;100.00
55191;BME280;41070;50.360;18.742;2023-02-03T20:58:46;97945.73;;;1.31;100.00
55191;BME280;41070;50.360;18.742;2023-02-03T21:01:20;97947.34;;;1.33;100.00
55191;BME280;41070;50.360;18.742;2023-02-03T21:03:48;97945.52;;;1.34;100.00
55191;BME280;41070;50.360;18.742;2023-02-03T21:06:33;97948.11;;;1.39;100.00
55191;BME280;41070;50.360;18.742;2023-02-03T21:09:11;97947.95;;;1.42;100.00
55191;BME280;41070;50.360;18.742;2023-02-03T21:11:41;97952.09;;;1.45;100.00
55191;BME280;41070;50.360;18.742;2023-02-03T21:14:21;97952.80;;;1.46;100.00
55191;BME280;41070;50.360;18.742;2023-02-03T21:16:50;97955.61;;;1.50;100.00
55191;BME280;41070;50.360;18.742;2023-02-03T21:19:34;97957.81;;;1.53;100.00
55191;BME280;41070;50.360;18.742;2023-02-03T21:22:15;97958.80;;;1.56;100.00
55191;BME280;41070;50.360;18.742;2023-02-03T21:24:47;97959.58;;;1.60;100.00
55191;BME280;41070;50.360;18.742;2023-02-03T21:29:49;97955.30;;;1.60;100.00
55191;BME280;41070;50.360;18.742;2023-02-03T21:32:39;97951.90;;;1.59;100.00
55191;BME280;41070;50.360;18.742;2023-02-03T21:35:27;97948.42;;;1.58;100.00
55191;BME280;41070;50.360;18.742;2023-02-03T21:37:57;97943.29;;;1.57;100.00
55191;BME280;41070;50.360;18.742;2023-02-03T21:40:35;97944.47;;;1.57;100.00
55191;BME280;41070;50.360;18.742;2023-02-03T21:46:33;97943.88;;;1.58;100.00
55191;BME280;41070;50.360;18.742;2023-02-03T21:49:03;97939.02;;;1.60;100.00
55191;BME280;41070;50.360;18.742;2023-02-03T21:51:36;97940.81;;;1.61;100.00
55191;BME280;41070;50.360;18.742;2023-02-03T21:54:22;97942.52;;;1.62;100.00
55191;BME280;41070;50.360;18.742;2023-02-03T21:56:55;97943.55;;;1.63;100.00
55191;BME280;41070;50.360;18.742;2023-02-03T21:59:25;97939.20;;;1.65;100.00
55191;BME280;41070;50.360;18.742;2023-02-03T22:01:55;97935.85;;;1.66;100.00
55191;BME280;41070;50.360;18.742;2023-02-03T22:04:28;97934.30;;;1.67;100.00
55191;BME280;41070;50.360;18.742;2023-02-03T22:06:56;97934.40;;;1.70;100.00
55191;BME280;41070;50.360;18.742;2023-02-03T22:09:37;97935.06;;;1.73;100.00